Time;durP1;ratioP1;P1;durP2;ratioP2;P2;SDS_P1;SDS_P2;PMS_P1;PMS_P2;Temp;Humidity;BMP_temperature;BMP_pressure;BME280_temperature;BME280_humidity;BME280_pressure;Samples;Min_cycle;Max_cycle;Signal;HPM_P1;HPM_P2
2020/12/24 00:01:11;;;;;;;67.00;23.67;;;;;;;;;;8261111;28;20391;-75
2020/12/24 00:05:14;;;;;;;75.07;27.73;;;;;;;;;;8262187;28;20483;-75
2020/12/24 00:09:18;;;;;;;27.05;14.63;;;;;;;;;;8262017;28;20375;-76
2020/12/24 00:13:21;;;;;;;26.10;11.73;;;;;;;;;;8261827;28;20375;-75
2020/12/24 00:17:24;;;;;;;26.13;12.10;;;;;;;;;;8261996;28;20483;-76
2020/12/24 00:21:28;;;;;;;22.15;12.20;;;;;;;;;;8261500;28;20393;-76
2020/12/24 00:25:31;;;;;;;30.67;13.70;;;;;;;;;;8261434;28;20481;-76
2020/12/24 00:29:34;;;;;;;25.67;12.43;;;;;;;;;;8261305;28;20455;-76
2020/12/24 00:33:37;;;;;;;43.20;20.90;;;;;;;;;;8261680;28;20478;-76
2020/12/24 00:37:40;;;;;;;46.80;21.52;;;;;;;;;;8260250;28;20057;-76
2020/12/24 00:41:43;;;;;;;38.38;20.70;;;;;;;;;;8260587;28;20052;-76
2020/12/24 00:45:47;;;;;;;41.08;19.52;;;;;;;;;;8258728;28;20045;-76
2020/12/24 00:49:51;;;;;;;42.40;21.25;;;;;;;;;;8260874;28;20386;-76
2020/12/24 00:53:55;;;;;;;34.13;18.38;;;;;;;;;;8260342;28;20474;-75
2020/12/24 00:57:58;;;;;;;27.00;13.77;;;;;;;;;;8258587;28;20475;-76
2020/12/24 01:02:04;;;;;;;27.23;13.98;;;;;;;;;;8275919;28;20053;-76
2020/12/24 01:06:07;;;;;;;29.33;15.23;;;;;;;;;;8275402;28;20374;-75
2020/12/24 01:10:12;;;;;;;33.60;15.82;;;;;;;;;;8259566;28;20053;-75
2020/12/24 01:14:15;;;;;;;25.30;13.75;;;;;;;;;;8259499;28;20395;-75
2020/12/24 01:18:18;;;;;;;29.33;15.38;;;;;;;;;;8258375;28;20529;-75
2020/12/24 01:22:21;;;;;;;28.83;15.20;;;;;;;;;;8259330;28;20040;-75
2020/12/24 01:26:24;;;;;;;34.30;17.13;;;;;;;;;;8259436;28;20061;-76
2020/12/24 01:30:28;;;;;;;30.50;17.27;;;;;;;;;;8258454;28;20497;-75
2020/12/24 01:34:31;;;;;;;30.88;15.85;;;;;;;;;;8257462;28;20383;-76
2020/12/24 01:38:33;;;;;;;32.92;17.00;;;;;;;;;;8259395;28;20462;-75
2020/12/24 01:42:37;;;;;;;35.28;15.65;;;;;;;;;;8258243;28;20379;-76
2020/12/24 01:46:40;;;;;;;32.80;16.92;;;;;;;;;;8259456;28;20471;-76
2020/12/24 01:50:52;;;;;;;29.95;15.77;;;;;;;;;;8273567;28;20475;-76
2020/12/24 01:54:55;;;;;;;31.08;16.58;;;;;;;;;;8257653;28;20390;-76
2020/12/24 01:58:58;;;;;;;31.80;16.60;;;;;;;;;;8241137;28;20383;-76
2020/12/24 02:03:01;;;;;;;36.05;17.15;;;;;;;;;;8257243;28;20432;-75
2020/12/24 02:07:05;;;;;;;32.45;18.17;;;;;;;;;;8256399;28;20484;-75
2020/12/24 02:11:08;;;;;;;45.28;19.33;;;;;;;;;;8258265;28;20403;-75
2020/12/24 02:15:11;;;;;;;29.23;15.57;;;;;;;;;;8257726;28;20494;-75
2020/12/24 02:19:15;;;;;;;27.77;15.95;;;;;;;;;;8257989;28;20640;-75
2020/12/24 02:23:18;;;;;;;30.48;14.82;;;;;;;;;;8257293;28;20383;-75
2020/12/24 02:27:21;;;;;;;27.02;14.80;;;;;;;;;;8256284;28;20480;-75
2020/12/24 02:31:25;;;;;;;34.35;15.23;;;;;;;;;;8257384;28;20082;-75
2020/12/24 02:35:28;;;;;;;26.73;13.02;;;;;;;;;;8257483;28;20479;-75
2020/12/24 02:39:31;;;;;;;25.02;12.52;;;;;;;;;;8257252;28;20498;-75
2020/12/24 02:43:34;;;;;;;21.65;12.50;;;;;;;;;;8255432;28;20406;-75
2020/12/24 02:47:37;;;;;;;19.67;11.82;;;;;;;;;;8257111;28;20383;-75
2020/12/24 02:51:40;;;;;;;19.08;10.43;;;;;;;;;;8271291;28;20370;-75
2020/12/24 02:55:45;;;;;;;21.77;11.02;;;;;;;;;;8255550;28;20053;-75
2020/12/24 02:59:48;;;;;;;16.08;8.93;;;;;;;;;;8256775;28;20502;-75
2020/12/24 03:03:52;;;;;;;19.10;9.13;;;;;;;;;;8256674;28;20464;-75
2020/12/24 03:07:55;;;;;;;14.10;7.43;;;;;;;;;;8257188;28;20049;-75
2020/12/24 03:11:58;;;;;;;15.18;7.60;;;;;;;;;;8255707;28;20374;-77
2020/12/24 03:16:01;;;;;;;10.52;6.32;;;;;;;;;;8256752;28;20494;-76
2020/12/24 03:20:07;;;;;;;9.52;5.78;;;;;;;;;;8240814;28;20379;-76
2020/12/24 03:24:10;;;;;;;12.30;6.90;;;;;;;;;;8256374;28;20071;-76
2020/12/24 03:28:13;;;;;;;10.25;6.43;;;;;;;;;;8256018;28;20414;-75
2020/12/24 03:32:16;;;;;;;11.68;6.32;;;;;;;;;;8255629;28;20379;-75
2020/12/24 03:36:19;;;;;;;9.45;5.68;;;;;;;;;;8253174;28;20048;-75
2020/12/24 03:40:22;;;;;;;14.23;7.55;;;;;;;;;;8254813;28;20049;-75
2020/12/24 03:44:25;;;;;;;18.35;7.93;;;;;;;;;;8256242;28;20490;-75
2020/12/24 03:48:29;;;;;;;15.57;7.35;;;;;;;;;;8256173;28;20501;-75
2020/12/24 03:52:34;;;;;;;11.38;6.95;;;;;;;;;;8255973;28;20368;-74
2020/12/24 03:56:37;;;;;;;13.63;7.75;;;;;;;;;;8270389;28;20490;-74
2020/12/24 04:00:40;;;;;;;13.48;7.97;;;;;;;;;;8255569;28;20369;-74
2020/12/24 04:04:44;;;;;;;11.15;6.85;;;;;;;;;;8260046;28;20071;-74
2020/12/24 04:08:52;;;;;;;;;;;;;;;;;;8276590;28;20420;-75
2020/12/24 04:12:55;;;;;;;11.75;6.72;;;;;;;;;;8261801;28;20220;-75
2020/12/24 04:17:07;;;;;;;10.82;6.63;;;;;;;;;;8261349;28;20491;-74
2020/12/24 04:21:10;;;;;;;10.27;6.82;;;;;;;;;;8261592;28;20375;-75
2020/12/24 04:25:13;;;;;;;12.20;6.38;;;;;;;;;;8259398;28;20468;-75
2020/12/24 04:29:17;;;;;;;12.60;6.30;;;;;;;;;;8261033;28;20363;-75
2020/12/24 04:33:20;;;;;;;11.55;6.82;;;;;;;;;;8253854;28;20464;-73
2020/12/24 04:37:26;;;;;;;11.65;6.45;;;;;;;;;;8260264;28;20375;-75
2020/12/24 04:41:30;;;;;;;11.60;6.65;;;;;;;;;;8259685;28;20079;-74
2020/12/24 04:45:33;;;;;;;8.50;5.43;;;;;;;;;;8260330;28;20072;-74
2020/12/24 04:49:36;;;;;;;10.38;6.28;;;;;;;;;;8255877;28;20500;-74
2020/12/24 04:53:40;;;;;;;11.25;6.43;;;;;;;;;;8241592;28;20368;-73
2020/12/24 04:57:51;;;;;;;22.10;9.68;;;;;;;;;;8259226;28;20476;-74
2020/12/24 05:01:58;;;;;;;9.85;5.78;;;;;;;;;;8259302;28;20052;-70
2020/12/24 05:06:01;;;;;;;10.52;6.47;;;;;;;;;;8258542;28;20379;-74
2020/12/24 05:10:04;;;;;;;10.10;6.65;;;;;;;;;;8239513;28;20357;-73
2020/12/24 05:14:17;;;;;;;9.15;6.05;;;;;;;;;;8257782;28;20065;-75
2020/12/24 05:18:22;;;;;;;11.38;6.28;;;;;;;;;;8257501;28;20571;-75
2020/12/24 05:22:28;;;;;;;8.93;5.55;;;;;;;;;;8259603;28;20053;-75
2020/12/24 05:26:33;;;;;;;12.35;6.63;;;;;;;;;;8273921;28;20059;-75
2020/12/24 05:30:36;;;;;;;9.57;5.63;;;;;;;;;;8259468;28;20049;-75
2020/12/24 05:34:40;;;;;;;7.55;4.97;;;;;;;;;;8259217;28;20365;-75
2020/12/24 05:38:43;;;;;;;15.80;6.30;;;;;;;;;;8258189;28;20049;-75
2020/12/24 05:42:55;;;;;;;31.58;17.60;;;;;;;;;;8258613;28;20130;-75
2020/12/24 05:47:01;;;;;;;41.47;19.27;;;;;;;;;;8258965;28;20077;-76
2020/12/24 05:51:18;;;;;;;40.67;17.58;;;;;;;;;;8258857;28;20372;-75
2020/12/24 05:55:22;;;;;;;61.55;27.08;;;;;;;;;;8240949;28;20388;-75
2020/12/24 05:59:31;;;;;;;57.60;27.35;;;;;;;;;;8257648;28;20478;-75
2020/12/24 06:03:58;;;;;;;31.45;17.65;;;;;;;;;;8258530;28;20387;-75
2020/12/24 06:08:17;;;;;;;24.60;15.32;;;;;;;;;;8256922;28;20577;-75
2020/12/24 06:12:27;;;;;;;19.20;10.52;;;;;;;;;;8256772;28;20387;-75
2020/12/24 06:16:33;;;;;;;18.10;10.30;;;;;;;;;;8258124;28;20053;-75
2020/12/24 06:20:52;;;;;;;16.58;9.18;;;;;;;;;;8256867;28;20053;-74
2020/12/24 06:24:57;;;;;;;31.85;16.15;;;;;;;;;;8257486;28;20060;-75
2020/12/24 06:29:03;;;;;;;13.80;8.05;;;;;;;;;;8256659;28;20483;-76
2020/12/24 06:33:10;;;;;;;14.38;8.15;;;;;;;;;;8257096;28;20372;-75
2020/12/24 06:37:19;;;;;;;13.60;7.57;;;;;;;;;;8256216;28;20076;-75
2020/12/24 06:41:36;;;;;;;13.82;8.13;;;;;;;;;;8255622;28;20045;-75
2020/12/24 06:45:41;;;;;;;17.17;10.27;;;;;;;;;;8255188;28;20383;-75
2020/12/24 06:49:44;;;;;;;16.63;10.95;;;;;;;;;;8256155;28;20391;-75
2020/12/24 06:53:57;;;;;;;17.67;10.65;;;;;;;;;;8255653;28;20049;-75
2020/12/24 06:58:00;;;;;;;16.05;8.85;;;;;;;;;;8257210;28;20383;-76
2020/12/24 07:02:05;;;;;;;13.25;7.90;;;;;;;;;;8256612;28;20476;-75
2020/12/24 07:06:09;;;;;;;15.48;8.30;;;;;;;;;;8256613;28;20483;-75
2020/12/24 07:10:50;;;;;;;17.60;7.72;;;;;;;;;;8255618;28;20075;-75
2020/12/24 07:14:53;;;;;;;17.10;8.05;;;;;;;;;;8256502;28;20380;-74
2020/12/24 07:18:58;;;;;;;26.90;11.45;;;;;;;;;;8255104;28;20049;-75
2020/12/24 07:23:00;;;;;;;20.20;9.60;;;;;;;;;;8256356;28;20501;-75
2020/12/24 07:27:06;;;;;;;18.27;9.35;;;;;;;;;;8256239;28;20487;-75
2020/12/24 07:31:11;;;;;;;23.23;12.32;;;;;;;;;;8254778;28;20380;-75
2020/12/24 07:35:16;;;;;;;21.20;10.07;;;;;;;;;;8255837;28;20388;-75
2020/12/24 07:39:19;;;;;;;21.80;9.95;;;;;;;;;;8260001;28;20502;-75
2020/12/24 07:43:25;;;;;;;23.60;11.25;;;;;;;;;;8262260;28;20510;-72
2020/12/24 07:47:28;;;;;;;17.83;8.25;;;;;;;;;;8244984;28;20057;-75
2020/12/24 07:51:33;;;;;;;21.30;9.20;;;;;;;;;;8262696;28;20572;-73
2020/12/24 07:55:37;;;;;;;20.15;11.05;;;;;;;;;;8260444;28;20498;-73
2020/12/24 07:59:40;;;;;;;21.58;12.52;;;;;;;;;;8260845;28;20464;-73
2020/12/24 08:03:43;;;;;;;18.83;10.13;;;;;;;;;;8260310;28;20368;-73
2020/12/24 08:07:51;;;;;;;21.70;11.23;;;;;;;;;;8263597;28;20379;-73
2020/12/24 08:11:59;;;;;;;19.67;10.95;;;;;;;;;;8261701;28;20498;-73
2020/12/24 08:16:04;;;;;;;22.50;10.95;;;;;;;;;;8262264;28;20468;-73
2020/12/24 08:20:10;;;;;;;22.10;12.30;;;;;;;;;;8261903;28;20460;-73
2020/12/24 08:24:14;;;;;;;19.55;11.38;;;;;;;;;;8259785;28;20368;-73
2020/12/24 08:28:18;;;;;;;25.65;14.63;;;;;;;;;;8273159;28;20410;-73
2020/12/24 08:32:31;;;;;;;18.77;10.93;;;;;;;;;;8274728;28;20694;-74
2020/12/24 08:36:46;;;;;;;14.27;7.93;;;;;;;;;;8273419;28;20067;-73
2020/12/24 08:40:49;;;;;;;14.95;7.40;;;;;;;;;;8289312;28;20048;-74
2020/12/24 08:44:57;;;;;;;14.13;7.70;;;;;;;;;;8256702;28;20363;-73
2020/12/24 08:49:24;;;;;;;15.98;7.72;;;;;;;;;;8288408;28;20467;-74
2020/12/24 08:53:28;;;;;;;16.35;8.38;;;;;;;;;;8273217;28;20495;-74
2020/12/24 08:57:32;;;;;;;13.88;7.65;;;;;;;;;;8283080;28;20379;-74
2020/12/24 09:01:44;;;;;;;15.50;8.02;;;;;;;;;;8260313;28;20461;-76
2020/12/24 09:05:47;;;;;;;37.40;13.10;;;;;;;;;;8275612;28;20375;-75
2020/12/24 09:10:06;;;;;;;24.08;11.35;;;;;;;;;;8260203;28;20506;-73
2020/12/24 09:14:09;;;;;;;19.95;10.50;;;;;;;;;;8260135;28;20470;-73
2020/12/24 09:18:13;;;;;;;18.90;9.50;;;;;;;;;;8260050;28;20467;-74
2020/12/24 09:22:18;;;;;;;16.40;9.43;;;;;;;;;;8259590;28;20037;-74
2020/12/24 09:26:21;;;;;;;27.50;9.05;;;;;;;;;;8257639;28;20379;-73
2020/12/24 09:30:25;;;;;;;23.65;10.60;;;;;;;;;;8259198;28;20368;-76
2020/12/24 09:34:29;;;;;;;20.33;10.05;;;;;;;;;;8259213;28;20483;-75
2020/12/24 09:38:32;;;;;;;24.05;11.70;;;;;;;;;;8258647;28;20468;-73
2020/12/24 09:42:35;;;;;;;29.85;12.35;;;;;;;;;;8256309;28;20577;-73
2020/12/24 09:46:39;;;;;;;25.67;11.77;;;;;;;;;;8258295;28;20052;-76
2020/12/24 09:50:42;;;;;;;20.17;9.80;;;;;;;;;;8257006;28;20045;-73
2020/12/24 09:54:45;;;;;;;15.35;6.72;;;;;;;;;;8273019;28;20049;-76
2020/12/24 09:58:48;;;;;;;22.00;10.60;;;;;;;;;;8259184;28;20049;-74
2020/12/24 10:02:51;;;;;;;26.88;12.90;;;;;;;;;;8257930;28;20357;-75
2020/12/24 10:06:54;;;;;;;18.33;9.00;;;;;;;;;;8258047;28;20380;-74
2020/12/24 10:10:57;;;;;;;29.58;13.90;;;;;;;;;;8257117;28;20497;-74
2020/12/24 10:15:01;;;;;;;19.15;9.85;;;;;;;;;;8257783;28;20352;-74
2020/12/24 10:19:05;;;;;;;30.20;14.68;;;;;;;;;;8257749;28;20041;-74
2020/12/24 10:23:10;;;;;;;30.33;13.95;;;;;;;;;;8257892;28;20501;-74
2020/12/24 10:27:13;;;;;;;33.72;14.45;;;;;;;;;;8257899;28;20406;-75
2020/12/24 10:31:16;;;;;;;31.95;15.88;;;;;;;;;;8257651;28;20411;-74
2020/12/24 10:35:19;;;;;;;21.67;12.85;;;;;;;;;;8256270;28;20505;-74
2020/12/24 10:39:22;;;;;;;33.00;15.95;;;;;;;;;;8257311;28;20460;-75
2020/12/24 10:43:28;;;;;;;22.67;10.68;;;;;;;;;;8272267;28;20585;-74
2020/12/24 10:47:31;;;;;;;22.00;11.30;;;;;;;;;;8256624;28;20414;-74
2020/12/24 10:51:35;;;;;;;24.77;11.02;;;;;;;;;;8256363;28;20411;-74
2020/12/24 10:55:38;;;;;;;21.35;9.82;;;;;;;;;;8256867;28;20456;-74
2020/12/24 10:59:42;;;;;;;24.85;11.13;;;;;;;;;;8257145;28;20456;-74
2020/12/24 11:03:46;;;;;;;29.98;15.25;;;;;;;;;;8256826;28;20075;-74
2020/12/24 11:07:52;;;;;;;23.77;12.10;;;;;;;;;;8254706;28;20474;-74
2020/12/24 11:11:55;;;;;;;23.13;10.57;;;;;;;;;;8254861;28;20471;-74
2020/12/24 11:15:58;;;;;;;23.13;12.13;;;;;;;;;;8255259;28;20357;-74
2020/12/24 11:20:01;;;;;;;20.50;10.25;;;;;;;;;;8257907;28;20383;-74
2020/12/24 11:24:06;;;;;;;20.25;12.25;;;;;;;;;;8253488;28;20388;-74
2020/12/24 11:28:09;;;;;;;18.17;9.30;;;;;;;;;;8256257;28;20475;-74
2020/12/24 11:32:12;;;;;;;26.67;10.80;;;;;;;;;;8253600;28;20481;-75
2020/12/24 11:36:15;;;;;;;22.13;12.23;;;;;;;;;;8254317;28;20357;-74
2020/12/24 11:40:19;;;;;;;439.30;190.60;;;;;;;;;;8256107;28;20482;-74
2020/12/24 11:44:22;;;;;;;74.75;46.03;;;;;;;;;;8256219;28;20380;-74
2020/12/24 11:48:25;;;;;;;37.95;20.17;;;;;;;;;;8256198;28;20483;-74
2020/12/24 11:52:28;;;;;;;35.67;19.80;;;;;;;;;;8253944;28;20435;-74
2020/12/24 11:56:33;;;;;;;31.38;14.73;;;;;;;;;;8254074;28;20493;-74
2020/12/24 12:00:37;;;;;;;29.38;13.52;;;;;;;;;;8254003;28;20369;-74
2020/12/24 12:04:39;;;;;;;19.40;11.55;;;;;;;;;;8246829;28;20468;-74
2020/12/24 12:08:43;;;;;;;18.98;10.95;;;;;;;;;;8223664;28;20375;-75
2020/12/24 12:12:46;;;;;;;28.67;12.70;;;;;;;;;;8219771;28;20067;-75
2020/12/24 12:16:49;;;;;;;47.17;23.70;;;;;;;;;;8220462;28;20077;-75
2020/12/24 12:20:53;;;;;;;20.23;9.63;;;;;;;;;;8218751;28;20382;-75
2020/12/24 12:24:56;;;;;;;24.75;10.02;;;;;;;;;;8220323;28;20383;-75
2020/12/24 12:29:02;;;;;;;33.85;13.05;;;;;;;;;;8223952;28;20507;-75
2020/12/24 12:33:06;;;;;;;301.42;117.35;;;;;;;;;;8203655;28;20484;-75
2020/12/24 12:37:13;;;;;;;464.33;211.73;;;;;;;;;;8224536;28;20514;-76
2020/12/24 12:41:19;;;;;;;383.33;200.70;;;;;;;;;;8257858;28;20460;-75
2020/12/24 12:45:25;;;;;;;455.67;208.45;;;;;;;;;;8251797;28;20353;-75
2020/12/24 12:49:28;;;;;;;358.67;127.57;;;;;;;;;;8254634;28;20492;-75
2020/12/24 12:53:31;;;;;;;200.85;39.15;;;;;;;;;;8254629;28;20494;-76
2020/12/24 12:57:35;;;;;;;131.27;29.45;;;;;;;;;;8226329;28;20770;-76
2020/12/24 13:01:38;;;;;;;102.70;47.58;;;;;;;;;;8222498;28;20408;-76
2020/12/24 13:05:47;;;;;;;381.70;193.88;;;;;;;;;;8205490;28;20361;-76
2020/12/24 13:09:50;;;;;;;208.02;47.45;;;;;;;;;;8208962;28;20041;-76
2020/12/24 13:13:54;;;;;;;80.68;24.33;;;;;;;;;;8234436;28;20404;-76
2020/12/24 13:17:57;;;;;;;78.18;27.67;;;;;;;;;;8257434;28;20044;-76
2020/12/24 13:22:01;;;;;;;62.75;26.52;;;;;;;;;;8258366;28;20053;-76
2020/12/24 13:26:04;;;;;;;34.08;14.93;;;;;;;;;;8259818;28;20477;-76
2020/12/24 13:30:07;;;;;;;133.38;63.83;;;;;;;;;;8257289;28;20395;-75
2020/12/24 13:34:10;;;;;;;43.67;19.35;;;;;;;;;;8274496;28;20590;-75
2020/12/24 13:38:14;;;;;;;29.85;11.63;;;;;;;;;;8256550;28;20464;-76
2020/12/24 13:42:17;;;;;;;47.35;20.05;;;;;;;;;;8256657;28;20479;-75
2020/12/24 13:46:23;;;;;;;20.10;8.63;;;;;;;;;;8258387;28;20494;-75
2020/12/24 13:50:27;;;;;;;24.63;10.85;;;;;;;;;;8257212;28;20053;-75
2020/12/24 13:54:31;;;;;;;21.08;9.75;;;;;;;;;;8258800;28;20497;-75
2020/12/24 13:58:45;;;;;;;42.25;18.90;;;;;;;;;;8256416;28;20374;-76
2020/12/24 14:02:48;;;;;;;18.90;9.20;;;;;;;;;;8258130;28;20049;-75
2020/12/24 14:06:52;;;;;;;15.70;7.50;;;;;;;;;;8257575;28;20410;-75
2020/12/24 14:10:55;;;;;;;22.33;12.07;;;;;;;;;;8254247;28;20502;-75
2020/12/24 14:15:02;;;;;;;21.48;10.40;;;;;;;;;;8239375;28;20041;-75
2020/12/24 14:19:06;;;;;;;33.85;16.75;;;;;;;;;;8254651;28;20486;-76
2020/12/24 14:23:15;;;;;;;21.55;11.73;;;;;;;;;;8255870;28;20389;-75
2020/12/24 14:27:22;;;;;;;23.98;13.27;;;;;;;;;;8257220;28;20378;-75
2020/12/24 14:31:25;;;;;;;26.20;13.05;;;;;;;;;;8254506;28;20383;-75
2020/12/24 14:35:28;;;;;;;25.98;13.75;;;;;;;;;;8256854;28;20478;-75
2020/12/24 14:39:32;;;;;;;32.50;13.90;;;;;;;;;;8255738;28;20407;-75
2020/12/24 14:43:35;;;;;;;23.15;10.90;;;;;;;;;;8256127;28;20057;-75
2020/12/24 14:47:39;;;;;;;17.92;8.35;;;;;;;;;;8239319;28;20376;-75
2020/12/24 14:51:49;;;;;;;23.27;9.93;;;;;;;;;;8255345;28;20593;-74
2020/12/24 14:55:52;;;;;;;39.88;17.90;;;;;;;;;;8256306;28;20410;-75
2020/12/24 14:59:55;;;;;;;27.00;11.20;;;;;;;;;;8254603;28;20045;-75
2020/12/24 15:03:58;;;;;;;67.50;25.67;;;;;;;;;;8256552;28;20459;-75
2020/12/24 15:08:05;;;;;;;54.15;20.75;;;;;;;;;;8202577;28;20088;-75
2020/12/24 15:12:08;;;;;;;46.60;20.63;;;;;;;;;;8167914;28;20487;-74
2020/12/24 15:16:12;;;;;;;27.05;15.13;;;;;;;;;;8254939;28;20372;-74
2020/12/24 15:20:14;;;;;;;26.65;12.13;;;;;;;;;;8253080;28;20455;-75
2020/12/24 15:24:17;;;;;;;21.17;10.40;;;;;;;;;;8254547;28;20492;-74
2020/12/24 15:28:22;;;;;;;24.48;12.18;;;;;;;;;;8255780;28;20374;-75
2020/12/24 15:32:25;;;;;;;21.13;9.40;;;;;;;;;;8139116;28;20387;-75
2020/12/24 15:36:29;;;;;;;24.80;11.23;;;;;;;;;;8252239;28;20475;-74
2020/12/24 15:40:33;;;;;;;34.92;14.77;;;;;;;;;;8254362;28;20479;-75
2020/12/24 15:44:37;;;;;;;33.17;14.93;;;;;;;;;;8253516;28;20475;-75
2020/12/24 15:48:40;;;;;;;57.58;26.60;;;;;;;;;;8195195;28;20476;-75
2020/12/24 15:52:43;;;;;;;50.20;27.58;;;;;;;;;;8250775;28;20395;-75
2020/12/24 15:56:46;;;;;;;29.25;14.50;;;;;;;;;;8250581;28;20452;-74
2020/12/24 16:00:49;;;;;;;36.40;17.27;;;;;;;;;;8254157;28;20490;-74
2020/12/24 16:04:52;;;;;;;48.67;21.70;;;;;;;;;;8233187;28;20467;-74
2020/12/24 16:08:55;;;;;;;41.97;17.23;;;;;;;;;;8243828;28;20392;-75
2020/12/24 16:12:59;;;;;;;73.10;35.92;;;;;;;;;;8255966;28;20459;-75
2020/12/24 16:17:14;;;;;;;43.35;19.73;;;;;;;;;;8256896;28;20486;-75
2020/12/24 16:21:24;;;;;;;58.35;22.13;;;;;;;;;;8255781;28;20471;-74
2020/12/24 16:25:27;;;;;;;80.47;32.83;;;;;;;;;;8257314;28;20468;-75
2020/12/24 16:29:30;;;;;;;39.83;17.92;;;;;;;;;;8256705;28;20398;-75
2020/12/24 16:33:33;;;;;;;59.70;23.27;;;;;;;;;;8257370;28;20464;-74
2020/12/24 16:37:37;;;;;;;42.33;15.10;;;;;;;;;;8240478;28;20463;-75
2020/12/24 16:41:40;;;;;;;65.10;24.55;;;;;;;;;;8201677;28;20463;-75
2020/12/24 16:45:43;;;;;;;60.80;24.33;;;;;;;;;;8256434;28;20357;-75
2020/12/24 16:49:46;;;;;;;61.78;24.95;;;;;;;;;;8259710;28;20379;-74
2020/12/24 16:53:51;;;;;;;80.90;34.20;;;;;;;;;;8259650;28;20510;-74
2020/12/24 16:57:54;;;;;;;54.58;24.45;;;;;;;;;;8205180;28;20066;-74
2020/12/24 17:01:57;;;;;;;57.45;24.65;;;;;;;;;;8288637;28;20421;-74
2020/12/24 17:06:02;;;;;;;33.55;14.93;;;;;;;;;;8287735;28;20371;-74
2020/12/24 17:10:06;;;;;;;43.13;14.18;;;;;;;;;;8255315;28;20486;-75
2020/12/24 17:14:08;;;;;;;44.58;19.23;;;;;;;;;;8289309;28;20371;-74
2020/12/24 17:18:13;;;;;;;39.47;16.60;;;;;;;;;;8288495;28;20478;-75
2020/12/24 17:22:17;;;;;;;38.80;15.48;;;;;;;;;;8288005;28;20353;-76
2020/12/24 17:26:26;;;;;;;40.60;15.48;;;;;;;;;;8257635;28;20340;-74
2020/12/24 17:30:30;;;;;;;28.92;11.13;;;;;;;;;;8252208;28;20052;-75
2020/12/24 17:34:33;;;;;;;32.92;13.48;;;;;;;;;;8242752;28;20462;-74
2020/12/24 17:38:36;;;;;;;52.17;18.33;;;;;;;;;;8317152;28;20624;-74
2020/12/24 17:42:40;;;;;;;38.00;16.77;;;;;;;;;;8319431;28;20043;-74
2020/12/24 17:46:47;;;;;;;30.83;13.32;;;;;;;;;;8319895;28;20420;-75
2020/12/24 17:50:50;;;;;;;41.42;14.65;;;;;;;;;;8303045;28;20413;-75
2020/12/24 17:54:54;;;;;;;41.40;14.57;;;;;;;;;;8319214;28;20405;-75
2020/12/24 17:58:57;;;;;;;36.75;15.48;;;;;;;;;;8319028;28;20406;-75
2020/12/24 18:03:01;;;;;;;38.67;19.75;;;;;;;;;;8249118;28;20046;-74
2020/12/24 18:07:06;;;;;;;29.25;12.90;;;;;;;;;;8157881;28;20392;-75
2020/12/24 18:11:13;;;;;;;32.72;14.68;;;;;;;;;;8172993;28;20492;-75
2020/12/24 18:15:16;;;;;;;32.53;15.90;;;;;;;;;;8189268;28;20362;-74
2020/12/24 18:19:19;;;;;;;34.67;15.15;;;;;;;;;;8188653;28;20416;-75
2020/12/24 18:23:22;;;;;;;29.08;14.15;;;;;;;;;;8192198;28;20372;-75
2020/12/24 18:27:25;;;;;;;40.40;17.73;;;;;;;;;;8256619;28;20411;-75
2020/12/24 18:31:37;;;;;;;39.22;18.25;;;;;;;;;;8215238;28;20501;-74
2020/12/24 18:35:40;;;;;;;39.33;17.42;;;;;;;;;;8258120;28;20475;-74
2020/12/24 18:39:44;;;;;;;58.38;24.15;;;;;;;;;;8256100;28;20479;-74
2020/12/24 18:43:48;;;;;;;52.03;21.27;;;;;;;;;;8257456;28;20479;-74
2020/12/24 18:47:51;;;;;;;59.30;24.13;;;;;;;;;;8254939;28;20045;-74
2020/12/24 18:51:57;;;;;;;53.53;25.73;;;;;;;;;;8255456;28;20374;-74
2020/12/24 18:56:00;;;;;;;49.53;21.25;;;;;;;;;;8257612;28;20371;-74
2020/12/24 19:00:08;;;;;;;55.10;21.25;;;;;;;;;;8257523;28;20467;-75
2020/12/24 19:04:11;;;;;;;53.33;21.95;;;;;;;;;;8255227;28;20455;-74
2020/12/24 19:08:14;;;;;;;39.35;18.52;;;;;;;;;;8257107;28;20057;-74
2020/12/24 19:12:19;;;;;;;51.45;24.23;;;;;;;;;;8255345;28;20474;-74
2020/12/24 19:16:22;;;;;;;70.15;24.50;;;;;;;;;;8256219;28;20415;-74
2020/12/24 19:20:27;;;;;;;72.15;23.27;;;;;;;;;;8254787;28;20379;-74
2020/12/24 19:24:30;;;;;;;53.45;17.98;;;;;;;;;;8256724;28;20497;-74
2020/12/24 19:28:34;;;;;;;46.97;17.25;;;;;;;;;;8254283;28;20375;-75
2020/12/24 19:32:38;;;;;;;65.97;19.90;;;;;;;;;;8254318;28;20414;-74
2020/12/24 19:36:43;;;;;;;79.45;21.23;;;;;;;;;;8261022;28;20472;-74
2020/12/24 19:40:46;;;;;;;44.13;16.27;;;;;;;;;;8261648;28;20071;-73
2020/12/24 19:45:08;;;;;;;42.88;15.70;;;;;;;;;;8262557;28;20510;-73
2020/12/24 19:49:11;;;;;;;54.47;18.52;;;;;;;;;;8263015;28;20472;-73
2020/12/24 19:53:14;;;;;;;48.05;18.05;;;;;;;;;;8262763;28;20498;-73
2020/12/24 19:57:18;;;;;;;26.83;13.82;;;;;;;;;;8261204;28;20498;-74
2020/12/24 20:01:21;;;;;;;28.63;13.75;;;;;;;;;;8262541;28;20371;-74
2020/12/24 20:05:25;;;;;;;18.33;8.30;;;;;;;;;;8261838;28;20375;-74
2020/12/24 20:09:28;;;;;;;36.60;14.32;;;;;;;;;;8262146;28;20414;-74
2020/12/24 20:13:33;;;;;;;47.00;16.77;;;;;;;;;;8261696;28;20459;-74
2020/12/24 20:17:37;;;;;;;52.85;16.95;;;;;;;;;;8260345;28;20479;-75
2020/12/24 20:21:40;;;;;;;62.95;29.65;;;;;;;;;;8261682;28;20053;-74
2020/12/24 20:25:43;;;;;;;421.88;219.93;;;;;;;;;;8260787;28;20364;-74
2020/12/24 20:29:48;;;;;;;235.20;63.20;;;;;;;;;;8261141;28;20490;-74
2020/12/24 20:33:51;;;;;;;88.35;29.92;;;;;;;;;;8261619;28;20392;-74
2020/12/24 20:37:54;;;;;;;65.93;21.85;;;;;;;;;;8261059;28;20422;-74
2020/12/24 20:41:57;;;;;;;69.75;33.42;;;;;;;;;;8261427;28;20495;-74
2020/12/24 20:46:00;;;;;;;397.90;88.85;;;;;;;;;;8259389;28;20391;-75
2020/12/24 20:50:05;;;;;;;408.27;98.85;;;;;;;;;;8261371;28;20063;-73
2020/12/24 20:54:12;;;;;;;121.30;34.20;;;;;;;;;;8260603;28;20367;-74
2020/12/24 20:58:15;;;;;;;131.73;41.30;;;;;;;;;;8260766;28;20471;-74
2020/12/24 21:02:18;;;;;;;118.20;60.28;;;;;;;;;;8258754;28;20071;-74
2020/12/24 21:06:21;;;;;;;127.75;77.35;;;;;;;;;;8260119;28;20460;-74
2020/12/24 21:10:24;;;;;;;68.30;24.40;;;;;;;;;;8260556;28;20480;-74
2020/12/24 21:14:29;;;;;;;28.42;12.25;;;;;;;;;;8258936;28;20455;-74
2020/12/24 21:18:32;;;;;;;35.70;16.23;;;;;;;;;;8260431;28;20456;-75
2020/12/24 21:22:36;;;;;;;29.88;12.27;;;;;;;;;;8260406;28;20497;-75
2020/12/24 21:26:39;;;;;;;41.40;16.92;;;;;;;;;;8259532;28;20448;-75
2020/12/24 21:30:42;;;;;;;45.72;15.77;;;;;;;;;;8259315;28;20388;-75
2020/12/24 21:34:45;;;;;;;71.75;40.65;;;;;;;;;;8259261;28;20075;-75
2020/12/24 21:38:49;;;;;;;53.58;26.90;;;;;;;;;;8259714;28;20475;-75
2020/12/24 21:42:52;;;;;;;44.38;20.98;;;;;;;;;;8258208;28;20049;-75
2020/12/24 21:46:56;;;;;;;44.55;20.33;;;;;;;;;;8258981;28;20372;-75
2020/12/24 21:51:03;;;;;;;59.03;24.90;;;;;;;;;;8258946;28;20053;-76
2020/12/24 21:55:06;;;;;;;51.80;17.23;;;;;;;;;;8259376;28;20487;-75
2020/12/24 21:59:09;;;;;;;34.80;14.77;;;;;;;;;;8256896;28;20053;-75
2020/12/24 22:03:12;;;;;;;17.83;8.27;;;;;;;;;;8258117;28;20379;-75
2020/12/24 22:07:15;;;;;;;18.17;7.97;;;;;;;;;;8256088;28;20360;-75
2020/12/24 22:11:19;;;;;;;14.43;5.65;;;;;;;;;;8258744;28;20071;-77
2020/12/24 22:15:22;;;;;;;8.93;4.07;;;;;;;;;;8258238;28;20481;-75
2020/12/24 22:19:25;;;;;;;7.25;3.05;;;;;;;;;;8258264;28;20049;-76
2020/12/24 22:23:28;;;;;;;10.60;2.63;;;;;;;;;;8240366;28;20049;-76
2020/12/24 22:27:33;;;;;;;5.68;2.33;;;;;;;;;;8257579;28;20494;-76
2020/12/24 22:31:36;;;;;;;18.98;5.40;;;;;;;;;;8257943;28;20365;-75
2020/12/24 22:35:39;;;;;;;6.78;2.58;;;;;;;;;;8258504;28;20060;-76
2020/12/24 22:39:42;;;;;;;11.95;4.28;;;;;;;;;;8257838;28;20379;-76
2020/12/24 22:43:45;;;;;;;7.10;3.40;;;;;;;;;;8257644;28;20413;-76
2020/12/24 22:47:48;;;;;;;10.75;3.83;;;;;;;;;;8271836;28;20480;-76
2020/12/24 22:51:51;;;;;;;13.93;4.68;;;;;;;;;;8255219;28;20402;-75
2020/12/24 22:55:54;;;;;;;13.73;4.38;;;;;;;;;;8256886;28;20526;-76
2020/12/24 22:59:58;;;;;;;11.05;4.45;;;;;;;;;;8256929;28;20388;-76
2020/12/24 23:04:01;;;;;;;12.88;4.45;;;;;;;;;;8254319;28;20467;-76
2020/12/24 23:08:05;;;;;;;6.20;2.95;;;;;;;;;;8256564;28;20501;-75
2020/12/24 23:12:13;;;;;;;9.13;4.22;;;;;;;;;;8257192;28;20498;-75
2020/12/24 23:16:16;;;;;;;12.18;3.92;;;;;;;;;;8257089;28;20083;-76
2020/12/24 23:20:21;;;;;;;13.35;4.05;;;;;;;;;;8256390;28;20526;-76
2020/12/24 23:24:24;;;;;;;10.23;4.10;;;;;;;;;;8256646;28;20375;-76
2020/12/24 23:28:27;;;;;;;14.30;4.18;;;;;;;;;;8256826;28;20068;-75
2020/12/24 23:32:30;;;;;;;16.48;5.30;;;;;;;;;;8254605;28;20569;-75
2020/12/24 23:36:33;;;;;;;9.05;3.20;;;;;;;;;;8256219;28;20084;-75
2020/12/24 23:40:36;;;;;;;12.10;3.90;;;;;;;;;;8256265;28;20480;-75
2020/12/24 23:44:39;;;;;;;13.68;4.80;;;;;;;;;;8254815;28;20460;-76
2020/12/24 23:48:42;;;;;;;7.35;3.20;;;;;;;;;;8256557;28;20103;-74